createdAt,value
2024-04-14T00:02:21.036Z,99.90
2024-04-14T00:04:54.601Z,99.90
2024-04-14T00:07:23.244Z,99.90
2024-04-14T00:09:50.511Z,99.90
2024-04-14T00:12:18.006Z,99.90
2024-04-14T00:14:45.400Z,99.90
2024-04-14T00:17:12.797Z,99.90
2024-04-14T00:19:40.121Z,99.90
2024-04-14T00:22:08.370Z,99.90
2024-04-14T00:24:36.235Z,99.90
2024-04-14T00:27:03.760Z,99.90
2024-04-14T00:29:31.050Z,99.90
2024-04-14T00:31:58.409Z,99.90
2024-04-14T00:34:25.675Z,99.90
2024-04-14T00:36:53.188Z,99.90
2024-04-14T00:39:20.519Z,99.90
2024-04-14T00:41:47.858Z,99.90
2024-04-14T00:44:15.218Z,99.90
2024-04-14T00:46:42.623Z,99.90
2024-04-14T00:49:11.859Z,99.90
2024-04-14T00:51:39.761Z,99.90
2024-04-14T00:54:07.459Z,99.90
2024-04-14T00:56:35.742Z,99.90
2024-04-14T00:59:03.638Z,99.90
2024-04-14T01:01:33.596Z,99.90
2024-04-14T01:04:01.093Z,99.90
2024-04-14T01:06:28.765Z,99.90
2024-04-14T01:08:56.263Z,99.90
2024-04-14T01:11:23.663Z,99.90
2024-04-14T01:13:51.053Z,99.90
2024-04-14T01:16:18.913Z,99.90
2024-04-14T01:18:46.434Z,99.90
2024-04-14T01:21:14.313Z,99.90
2024-04-14T01:23:41.583Z,99.90
2024-04-14T01:26:09.154Z,99.90
2024-04-14T01:28:36.654Z,99.90
2024-04-14T01:31:05.718Z,99.90
2024-04-14T01:33:33.034Z,99.90
2024-04-14T01:36:00.521Z,99.90
2024-04-14T01:38:27.775Z,99.90
2024-04-14T01:40:55.199Z,99.90
2024-04-14T01:43:23.200Z,99.90
2024-04-14T01:45:54.155Z,99.90
2024-04-14T01:48:21.754Z,99.90
2024-04-14T01:50:50.453Z,99.90
2024-04-14T01:53:18.280Z,99.90
2024-04-14T01:55:47.550Z,99.90
2024-04-14T01:58:15.452Z,99.90
2024-04-14T02:00:42.831Z,99.90
2024-04-14T02:03:10.462Z,99.90
2024-04-14T02:05:37.897Z,99.90
2024-04-14T02:08:05.944Z,99.90
2024-04-14T02:10:33.203Z,99.90
2024-04-14T02:13:00.663Z,99.90
2024-04-14T02:15:28.008Z,99.90
2024-04-14T02:17:55.566Z,99.90
2024-04-14T02:20:22.958Z,99.90
2024-04-14T02:22:50.355Z,99.90
2024-04-14T02:25:17.678Z,99.90
2024-04-14T02:27:45.179Z,99.90
2024-04-14T02:30:12.677Z,99.90
2024-04-14T02:32:40.778Z,99.90
2024-04-14T02:35:08.297Z,99.90
2024-04-14T02:37:35.645Z,99.90
2024-04-14T02:40:02.982Z,99.90
2024-04-14T02:42:36.207Z,99.90
2024-04-14T02:45:04.297Z,99.90
2024-04-14T02:47:31.657Z,99.90
2024-04-14T02:49:59.124Z,99.90
2024-04-14T02:52:26.883Z,99.90
2024-04-14T02:54:56.203Z,99.90
2024-04-14T02:57:24.958Z,99.90
2024-04-14T02:59:52.472Z,99.90
2024-04-14T03:02:19.818Z,99.90
2024-04-14T03:04:50.296Z,99.90
2024-04-14T03:07:17.714Z,99.90
2024-04-14T03:09:45.028Z,99.90
2024-04-14T03:12:12.388Z,99.90
2024-04-14T03:14:39.668Z,99.90
2024-04-14T03:17:07.031Z,99.90
2024-04-14T03:19:34.334Z,99.90
2024-04-14T03:22:01.768Z,99.90
2024-04-14T03:24:29.117Z,99.90
2024-04-14T03:26:59.897Z,99.90
2024-04-14T03:29:27.349Z,99.90
2024-04-14T03:31:54.656Z,99.90
2024-04-14T03:34:22.207Z,99.90
2024-04-14T03:36:49.621Z,99.90
2024-04-14T03:39:17.024Z,99.90
2024-04-14T03:41:44.434Z,99.90
2024-04-14T03:44:15.138Z,99.90
2024-04-14T03:46:42.597Z,99.90
2024-04-14T03:49:11.401Z,99.90
2024-04-14T03:51:38.968Z,99.90
2024-04-14T03:54:08.864Z,99.90
2024-04-14T03:56:36.374Z,99.90
2024-04-14T03:59:04.990Z,99.90
2024-04-14T04:01:34.992Z,99.90
2024-04-14T04:04:02.477Z,99.90
2024-04-14T04:06:29.894Z,99.90
2024-04-14T04:08:57.222Z,99.90
2024-04-14T04:11:24.654Z,99.90
2024-04-14T04:13:51.916Z,99.90
2024-04-14T04:16:19.272Z,99.90
2024-04-14T04:18:46.835Z,99.90
2024-04-14T04:21:14.282Z,99.90
2024-04-14T04:23:41.647Z,99.90
2024-04-14T04:26:09.259Z,99.90
2024-04-14T04:28:36.824Z,99.90
2024-04-14T04:31:07.214Z,99.90
2024-04-14T04:33:35.528Z,99.90
2024-04-14T04:36:02.973Z,99.90
2024-04-14T04:38:30.466Z,99.90
2024-04-14T04:40:57.761Z,99.90
2024-04-14T04:43:25.440Z,99.90
2024-04-14T04:45:53.095Z,99.90
2024-04-14T04:48:20.660Z,99.90
2024-04-14T04:50:48.401Z,99.90
2024-04-14T04:53:16.298Z,99.90
2024-04-14T04:55:45.742Z,99.90
2024-04-14T04:58:14.459Z,99.90
2024-04-14T05:00:42.812Z,99.90
2024-04-14T05:03:10.195Z,99.90
2024-04-14T05:05:37.487Z,99.90
2024-04-14T05:08:05.400Z,99.90
2024-04-14T05:10:32.714Z,99.90
2024-04-14T05:13:00.124Z,99.90
2024-04-14T05:15:27.534Z,99.90
2024-04-14T05:17:54.961Z,99.90
2024-04-14T05:20:22.316Z,99.90
2024-04-14T05:22:49.846Z,99.90
2024-04-14T05:25:17.139Z,99.90
2024-04-14T05:27:44.685Z,99.90
2024-04-14T05:30:12.206Z,99.90
2024-04-14T05:32:40.696Z,99.90
2024-04-14T05:35:08.378Z,99.90
2024-04-14T05:37:35.825Z,99.90
2024-04-14T05:40:03.157Z,99.90
2024-04-14T05:42:30.659Z,99.90
2024-04-14T05:44:58.082Z,99.90
2024-04-14T05:47:25.655Z,99.90
2024-04-14T05:49:53.465Z,99.90
2024-04-14T05:52:21.404Z,99.90
2024-04-14T05:54:48.985Z,99.90
2024-04-14T05:57:16.494Z,99.90
2024-04-14T05:59:46.621Z,99.90
2024-04-14T06:02:16.218Z,99.90
2024-04-14T06:04:44.840Z,99.90
2024-04-14T06:07:12.209Z,99.90
2024-04-14T06:09:39.743Z,99.90
2024-04-14T06:12:07.638Z,99.90
2024-04-14T06:14:34.946Z,99.90
2024-04-14T06:17:02.544Z,99.90
2024-04-14T06:19:29.835Z,99.90
2024-04-14T06:21:57.329Z,99.90
2024-04-14T06:24:24.781Z,99.90
2024-04-14T06:26:52.165Z,99.90
2024-04-14T06:29:19.525Z,99.90
2024-04-14T06:31:47.013Z,99.90
2024-04-14T06:34:14.322Z,99.90
2024-04-14T06:36:41.820Z,99.90
2024-04-14T06:39:09.306Z,99.90
2024-04-14T06:41:36.673Z,99.90
2024-04-14T06:44:03.966Z,99.90
2024-04-14T06:46:31.384Z,99.90
2024-04-14T06:48:58.713Z,99.90
2024-04-14T06:51:26.207Z,99.90
2024-04-14T06:53:53.537Z,99.90
2024-04-14T06:56:20.875Z,99.90
2024-04-14T06:58:48.285Z,99.90
2024-04-14T07:01:15.804Z,99.90
2024-04-14T07:03:43.185Z,99.90
2024-04-14T07:06:10.587Z,99.90
2024-04-14T07:08:38.057Z,99.90
2024-04-14T07:11:05.462Z,99.90
2024-04-14T07:13:32.882Z,99.90
2024-04-14T07:16:00.360Z,99.90
2024-04-14T07:18:28.094Z,99.90
2024-04-14T07:20:55.449Z,99.90
2024-04-14T07:23:22.873Z,99.90
2024-04-14T07:25:50.162Z,99.90
2024-04-14T07:28:17.542Z,99.90
2024-04-14T07:30:46.348Z,99.90
2024-04-14T07:33:13.756Z,99.90
2024-04-14T07:35:41.114Z,99.90
2024-04-14T07:38:08.679Z,99.90
2024-04-14T07:40:36.215Z,99.90
2024-04-14T07:43:03.656Z,99.90
2024-04-14T07:45:31.147Z,99.90
2024-04-14T07:47:58.568Z,99.90
2024-04-14T07:50:26.040Z,99.90
2024-04-14T07:52:53.450Z,99.90
2024-04-14T07:55:20.958Z,99.90
2024-04-14T07:57:48.314Z,99.90
2024-04-14T08:00:15.973Z,99.90
2024-04-14T08:02:44.316Z,99.90
2024-04-14T08:05:11.969Z,99.90
2024-04-14T08:07:39.433Z,99.90
2024-04-14T08:10:07.246Z,99.90
2024-04-14T08:12:34.611Z,99.90
2024-04-14T08:15:02.137Z,99.90
2024-04-14T08:17:33.012Z,99.90
2024-04-14T08:20:00.458Z,99.90
2024-04-14T08:22:27.779Z,99.90
2024-04-14T08:24:55.209Z,99.90
2024-04-14T08:27:22.466Z,99.90
2024-04-14T08:29:49.882Z,99.90
2024-04-14T08:32:17.243Z,99.90
2024-04-14T08:34:44.651Z,99.90
2024-04-14T08:37:11.998Z,99.90
2024-04-14T08:39:39.427Z,99.90
2024-04-14T08:42:11.379Z,99.90
2024-04-14T08:44:41.398Z,99.90
2024-04-14T08:47:10.601Z,99.90
2024-04-14T08:49:40.674Z,99.90
2024-04-14T08:52:09.933Z,99.90
2024-04-14T08:54:37.860Z,99.90
2024-04-14T08:57:06.801Z,99.90
2024-04-14T08:59:38.472Z,99.90
2024-04-14T09:02:08.856Z,99.90
2024-04-14T09:04:36.172Z,99.90
2024-04-14T09:07:03.774Z,99.90
2024-04-14T09:09:31.261Z,99.90
2024-04-14T09:12:00.050Z,99.90
2024-04-14T09:14:27.543Z,99.90
2024-04-14T09:16:55.272Z,99.90
2024-04-14T09:19:22.682Z,99.90
2024-04-14T09:21:51.445Z,99.90
2024-04-14T09:24:18.797Z,99.90
2024-04-14T09:26:46.230Z,99.90
2024-04-14T09:29:13.652Z,99.90
2024-04-14T09:31:42.523Z,99.90
2024-04-14T09:34:10.835Z,99.90
2024-04-14T09:36:39.403Z,99.90
2024-04-14T09:39:07.879Z,99.90
2024-04-14T09:41:38.178Z,99.90
2024-04-14T09:44:06.961Z,99.90
2024-04-14T09:46:35.755Z,99.90
2024-04-14T09:49:03.519Z,99.90
2024-04-14T09:51:32.439Z,99.90
2024-04-14T09:54:00.333Z,99.90
2024-04-14T09:56:28.010Z,99.90
2024-04-14T09:58:56.137Z,99.90
2024-04-14T10:01:30.556Z,98.80
2024-04-14T10:04:02.617Z,98.30
2024-04-14T10:06:32.623Z,99.00
2024-04-14T10:09:00.033Z,97.90
2024-04-14T10:11:28.508Z,97.40
2024-04-14T10:13:57.209Z,97.70
2024-04-14T10:16:27.393Z,98.20
2024-04-14T10:18:54.913Z,98.50
2024-04-14T10:21:23.965Z,97.50
2024-04-14T10:23:54.413Z,96.60
2024-04-14T10:26:22.335Z,96.20
2024-04-14T10:28:52.875Z,95.30
2024-04-14T10:31:23.514Z,96.40
2024-04-14T10:34:02.881Z,95.50
2024-04-14T10:36:30.683Z,95.40
2024-04-14T10:38:58.253Z,94.20
2024-04-14T10:41:25.637Z,94.30
2024-04-14T10:43:53.029Z,94.00
2024-04-14T10:46:20.565Z,94.00
2024-04-14T10:48:48.183Z,93.80
2024-04-14T10:51:15.738Z,93.40
2024-04-14T10:53:43.425Z,93.30
2024-04-14T10:56:11.008Z,94.10
2024-04-14T10:58:39.834Z,93.50
2024-04-14T11:01:07.271Z,93.00
2024-04-14T11:03:34.721Z,92.70
2024-04-14T11:06:04.407Z,91.00
2024-04-14T11:08:34.930Z,90.90
2024-04-14T11:11:03.069Z,89.80
2024-04-14T11:13:30.606Z,85.50
2024-04-14T11:15:59.300Z,83.00
2024-04-14T11:18:28.996Z,84.70
2024-04-14T11:20:56.888Z,83.10
2024-04-14T11:23:24.708Z,84.10
2024-04-14T11:25:52.071Z,81.10
2024-04-14T11:28:21.144Z,82.60
2024-04-14T11:30:50.652Z,83.50
2024-04-14T11:33:24.054Z,82.20
2024-04-14T11:35:58.209Z,82.30
2024-04-14T11:38:27.172Z,78.90
2024-04-14T11:40:55.814Z,72.40
2024-04-14T11:43:24.018Z,77.40
2024-04-14T11:45:52.446Z,81.60
2024-04-14T11:48:21.772Z,83.00
2024-04-14T11:50:49.222Z,79.10
2024-04-14T11:53:16.795Z,81.10
2024-04-14T11:55:44.078Z,78.80
2024-04-14T11:58:13.657Z,80.10
2024-04-14T12:00:41.436Z,82.70
2024-04-14T12:03:09.414Z,82.80
2024-04-14T12:05:36.752Z,80.70
2024-04-14T12:08:04.475Z,84.00
2024-04-14T12:10:32.176Z,83.00
2024-04-14T12:12:59.531Z,81.00
2024-04-14T12:15:27.031Z,81.90
2024-04-14T12:17:54.590Z,81.50
2024-04-14T12:20:22.017Z,76.20
2024-04-14T12:22:49.500Z,80.00
2024-04-14T12:25:18.684Z,78.90
2024-04-14T12:27:45.970Z,79.10
2024-04-14T12:30:13.991Z,77.10
2024-04-14T12:32:43.046Z,77.60
2024-04-14T12:35:11.631Z,76.40
2024-04-14T12:37:39.043Z,76.60
2024-04-14T12:40:07.382Z,78.40
2024-04-14T12:42:34.749Z,78.60
2024-04-14T12:45:02.205Z,78.10
2024-04-14T12:47:29.616Z,76.90
2024-04-14T12:49:57.204Z,78.10
2024-04-14T12:52:24.629Z,77.00
2024-04-14T12:54:52.641Z,75.70
2024-04-14T12:57:21.062Z,74.70
2024-04-14T12:59:49.319Z,75.00
2024-04-14T13:02:16.651Z,77.80
2024-04-14T13:04:46.988Z,80.30
2024-04-14T13:07:14.770Z,78.50
2024-04-14T13:09:42.150Z,77.70
2024-04-14T13:12:11.327Z,77.60
2024-04-14T13:14:40.046Z,79.40
2024-04-14T13:17:07.577Z,79.70
2024-04-14T13:19:36.284Z,77.30
2024-04-14T13:22:04.144Z,78.00
2024-04-14T13:24:31.824Z,75.80
2024-04-14T13:26:59.262Z,76.10
2024-04-14T13:29:28.057Z,76.20
2024-04-14T13:31:56.515Z,75.00
2024-04-14T13:34:23.775Z,72.40
2024-04-14T13:36:51.377Z,76.40
2024-04-14T13:39:18.693Z,77.20
2024-04-14T13:41:46.594Z,78.80
2024-04-14T13:44:13.980Z,80.00
2024-04-14T13:46:41.557Z,79.80
2024-04-14T13:49:10.539Z,81.00
2024-04-14T13:51:38.017Z,82.00
2024-04-14T13:54:05.832Z,82.30
2024-04-14T13:56:33.256Z,83.60
2024-04-14T13:59:00.619Z,80.20
2024-04-14T14:01:28.911Z,80.20
2024-04-14T14:03:56.431Z,81.80
2024-04-14T14:06:25.205Z,81.90
2024-04-14T14:08:52.506Z,81.00
2024-04-14T14:11:19.931Z,81.50
2024-04-14T14:13:47.953Z,82.90
2024-04-14T14:16:15.511Z,83.10
2024-04-14T14:18:43.164Z,83.10
2024-04-14T14:21:11.735Z,82.80
2024-04-14T14:23:39.246Z,80.30
2024-04-14T14:26:06.626Z,78.80
2024-04-14T14:28:34.207Z,78.90
2024-04-14T14:31:01.722Z,77.70
2024-04-14T14:33:31.145Z,78.90
2024-04-14T14:36:01.275Z,81.60
2024-04-14T14:38:34.154Z,82.60
2024-04-14T14:41:08.266Z,84.10
2024-04-14T14:43:37.088Z,82.40
2024-04-14T14:46:05.090Z,82.80
2024-04-14T14:48:32.769Z,84.00
2024-04-14T14:51:00.127Z,83.50
2024-04-14T14:53:27.506Z,84.10
2024-04-14T14:55:54.857Z,83.20
2024-04-14T14:58:22.095Z,81.20
2024-04-14T15:00:54.145Z,80.70
2024-04-14T15:03:21.651Z,83.50
2024-04-14T15:05:48.937Z,83.20
2024-04-14T15:08:16.356Z,83.10
2024-04-14T15:10:47.557Z,84.30
2024-04-14T15:13:15.575Z,83.20
2024-04-14T15:15:51.483Z,82.40
2024-04-14T15:18:18.937Z,84.80
2024-04-14T15:20:46.225Z,83.60
2024-04-14T15:23:13.689Z,83.40
2024-04-14T15:25:41.109Z,84.80
2024-04-14T15:28:14.995Z,84.60
2024-04-14T15:30:47.897Z,85.90
2024-04-14T15:33:15.238Z,85.50
2024-04-14T15:35:42.641Z,85.00
2024-04-14T15:38:10.066Z,85.40
2024-04-14T15:40:38.812Z,85.40
2024-04-14T15:43:06.365Z,85.70
2024-04-14T15:45:33.949Z,84.80
2024-04-14T15:48:01.394Z,85.00
2024-04-14T15:50:28.828Z,85.30
2024-04-14T15:52:56.589Z,84.40
2024-04-14T15:55:26.945Z,88.20
2024-04-14T15:57:56.042Z,84.90
2024-04-14T16:00:23.588Z,82.90
2024-04-14T16:02:51.225Z,84.60
2024-04-14T16:05:19.207Z,85.10
2024-04-14T16:07:46.740Z,86.00
2024-04-14T16:10:14.114Z,85.90
2024-04-14T16:12:41.609Z,84.70
2024-04-14T16:15:08.938Z,84.80
2024-04-14T16:17:36.420Z,85.20
2024-04-14T16:20:04.122Z,86.50
2024-04-14T16:22:31.580Z,85.60
2024-04-14T16:24:59.034Z,88.50
2024-04-14T16:27:26.552Z,86.20
2024-04-14T16:29:54.257Z,85.90
2024-04-14T16:32:21.781Z,86.00
2024-04-14T16:34:49.097Z,87.50
2024-04-14T16:37:16.454Z,88.90
2024-04-14T16:39:47.032Z,90.20
2024-04-14T16:42:14.418Z,90.80
2024-04-14T16:44:41.719Z,91.80
2024-04-14T16:47:09.093Z,90.10
2024-04-14T16:49:36.522Z,90.30
2024-04-14T16:52:04.180Z,92.00
2024-04-14T16:54:31.532Z,92.80
2024-04-14T16:56:58.931Z,92.70
2024-04-14T16:59:26.366Z,92.70
2024-04-14T17:01:53.685Z,92.90
2024-04-14T17:04:22.355Z,93.80
2024-04-14T17:06:49.801Z,94.60
2024-04-14T17:09:17.189Z,94.80
2024-04-14T17:11:44.499Z,94.90
2024-04-14T17:14:11.900Z,95.00
2024-04-14T17:16:39.272Z,95.30
2024-04-14T17:19:06.752Z,96.50
2024-04-14T17:21:34.269Z,96.40
2024-04-14T17:24:01.692Z,96.70
2024-04-14T17:26:29.009Z,97.40
2024-04-14T17:28:57.849Z,97.60
2024-04-14T17:31:25.226Z,97.80
2024-04-14T17:33:52.539Z,98.50
2024-04-14T17:36:20.027Z,98.80
2024-04-14T17:38:47.268Z,99.10
2024-04-14T17:41:14.588Z,99.70
2024-04-14T17:43:42.020Z,99.90
2024-04-14T17:46:09.994Z,99.90
2024-04-14T17:48:37.520Z,99.90
2024-04-14T17:51:08.242Z,99.90
2024-04-14T17:53:38.094Z,99.90
2024-04-14T17:56:05.631Z,99.90
2024-04-14T17:58:33.036Z,99.90
2024-04-14T18:01:00.525Z,99.90
2024-04-14T18:03:28.593Z,99.90
2024-04-14T18:05:58.327Z,99.90
2024-04-14T18:08:25.900Z,99.90
2024-04-14T18:10:53.168Z,99.90
2024-04-14T18:13:20.638Z,99.90
2024-04-14T18:15:47.908Z,99.90
2024-04-14T18:18:15.723Z,99.90
2024-04-14T18:20:46.185Z,99.90
2024-04-14T18:23:14.870Z,99.90
2024-04-14T18:25:42.106Z,99.90
2024-04-14T18:28:09.638Z,99.90
2024-04-14T18:30:37.098Z,99.90
2024-04-14T18:33:05.572Z,99.90
2024-04-14T18:35:33.070Z,99.90
2024-04-14T18:38:00.509Z,99.90
2024-04-14T18:40:28.047Z,99.90
2024-04-14T18:42:55.443Z,99.90
2024-04-14T18:45:22.814Z,99.90
2024-04-14T18:47:50.176Z,99.90
2024-04-14T18:50:17.799Z,99.90
2024-04-14T18:52:45.088Z,99.90
2024-04-14T18:55:12.753Z,99.90
2024-04-14T18:57:40.268Z,99.90
2024-04-14T19:00:08.327Z,99.90
2024-04-14T19:02:36.702Z,99.90
2024-04-14T19:05:04.196Z,99.90
2024-04-14T19:07:31.527Z,99.90
2024-04-14T19:09:59.232Z,99.90
2024-04-14T19:12:26.709Z,99.90
2024-04-14T19:14:53.979Z,99.90
2024-04-14T19:17:22.756Z,99.90
2024-04-14T19:19:50.177Z,99.90
2024-04-14T19:22:17.582Z,99.90
2024-04-14T19:24:47.524Z,99.90
2024-04-14T19:27:14.983Z,99.90
2024-04-14T19:29:42.239Z,99.90
2024-04-14T19:32:09.623Z,99.90
2024-04-14T19:34:37.059Z,99.90
2024-04-14T19:37:04.709Z,99.90
2024-04-14T19:39:32.010Z,99.90
2024-04-14T19:41:59.450Z,99.90
2024-04-14T19:44:26.976Z,99.90
2024-04-14T19:46:54.588Z,99.90
2024-04-14T19:49:21.977Z,99.90
2024-04-14T19:51:49.396Z,99.90
2024-04-14T19:54:16.699Z,99.90
2024-04-14T19:56:44.078Z,99.90
2024-04-14T19:59:12.254Z,99.90
2024-04-14T20:01:39.777Z,99.90
2024-04-14T20:04:07.440Z,99.90
2024-04-14T20:06:34.829Z,99.90
2024-04-14T20:09:02.217Z,99.90
2024-04-14T20:11:29.679Z,99.90
2024-04-14T20:13:57.020Z,99.90
2024-04-14T20:16:24.393Z,99.90
2024-04-14T20:18:51.835Z,99.90
2024-04-14T20:21:19.128Z,99.90
2024-04-14T20:23:46.523Z,99.90
2024-04-14T20:26:13.894Z,99.90
2024-04-14T20:28:41.265Z,99.90
2024-04-14T20:31:08.618Z,99.90
2024-04-14T20:33:36.209Z,99.90
2024-04-14T20:36:07.677Z,99.90
2024-04-14T20:38:35.537Z,99.90
2024-04-14T20:41:03.110Z,99.90
2024-04-14T20:43:30.570Z,99.90
2024-04-14T20:45:58.359Z,99.90
2024-04-14T20:48:26.285Z,99.90
2024-04-14T20:50:53.775Z,99.90
2024-04-14T20:53:21.330Z,99.90
2024-04-14T20:55:48.749Z,99.90
2024-04-14T20:58:17.579Z,99.90
2024-04-14T21:00:46.437Z,99.90
2024-04-14T21:03:14.126Z,99.90
2024-04-14T21:05:44.546Z,99.90
2024-04-14T21:08:11.976Z,99.90
2024-04-14T21:10:39.673Z,99.90
2024-04-14T21:13:10.605Z,99.90
2024-04-14T21:15:38.072Z,99.90
2024-04-14T21:18:05.750Z,99.90
2024-04-14T21:20:33.329Z,99.90
2024-04-14T21:23:00.560Z,99.90
2024-04-14T21:25:27.993Z,99.90
2024-04-14T21:27:55.348Z,99.90
2024-04-14T21:30:22.737Z,99.90
2024-04-14T21:32:50.140Z,99.90
2024-04-14T21:35:17.519Z,99.90
2024-04-14T21:37:47.223Z,99.90
2024-04-14T21:40:14.764Z,99.90
2024-04-14T21:42:42.122Z,99.90
2024-04-14T21:45:09.584Z,99.90
2024-04-14T21:47:37.433Z,99.90
2024-04-14T21:50:05.225Z,99.90
2024-04-14T21:52:32.578Z,99.90
2024-04-14T21:55:00.136Z,99.90
2024-04-14T21:57:27.686Z,99.90
2024-04-14T21:59:55.831Z,99.90
2024-04-14T22:02:23.402Z,99.90
2024-04-14T22:04:50.879Z,99.90
2024-04-14T22:07:18.405Z,99.90
2024-04-14T22:09:46.051Z,99.90
2024-04-14T22:12:13.587Z,99.90
2024-04-14T22:14:40.869Z,99.90
2024-04-14T22:17:08.583Z,99.90
2024-04-14T22:19:35.847Z,99.90
2024-04-14T22:22:03.305Z,99.90
2024-04-14T22:24:30.780Z,99.90
2024-04-14T22:26:58.238Z,99.90
2024-04-14T22:29:25.482Z,99.90
2024-04-14T22:31:54.167Z,99.90
2024-04-14T22:34:21.583Z,99.90
2024-04-14T22:36:48.922Z,99.90
2024-04-14T22:39:16.544Z,99.90
2024-04-14T22:41:43.822Z,99.90
2024-04-14T22:44:11.219Z,99.90
2024-04-14T22:46:39.382Z,99.90
2024-04-14T22:49:06.822Z,99.90
2024-04-14T22:51:34.352Z,99.90
2024-04-14T22:54:01.715Z,99.90
2024-04-14T22:56:29.123Z,99.90
2024-04-14T22:58:56.442Z,99.90
2024-04-14T23:01:24.064Z,99.90
2024-04-14T23:03:51.543Z,99.90
2024-04-14T23:06:18.920Z,99.90
2024-04-14T23:08:46.442Z,99.90
2024-04-14T23:11:13.809Z,99.90
2024-04-14T23:13:41.084Z,99.90
2024-04-14T23:16:10.208Z,99.90
2024-04-14T23:18:37.579Z,99.90
2024-04-14T23:21:05.037Z,99.90
2024-04-14T23:23:32.371Z,99.90
2024-04-14T23:25:59.764Z,99.90
2024-04-14T23:28:27.442Z,99.90
2024-04-14T23:30:54.790Z,99.90
2024-04-14T23:33:22.204Z,99.90
2024-04-14T23:35:49.509Z,99.90
2024-04-14T23:38:19.637Z,99.90
2024-04-14T23:40:47.046Z,99.90
2024-04-14T23:43:14.574Z,99.90
2024-04-14T23:45:42.602Z,99.90
2024-04-14T23:48:10.176Z,99.90
2024-04-14T23:50:37.669Z,99.90
2024-04-14T23:53:05.647Z,99.90
2024-04-14T23:55:33.654Z,99.90
2024-04-14T23:58:01.558Z,99.90
